Time;durP1;ratioP1;P1;durP2;ratioP2;P2;SDS_P1;SDS_P2;PMS_P1;PMS_P2;Temp;Humidity;BMP_temperature;BMP_pressure;BME280_temperature;BME280_humidity;BME280_pressure;Samples;Min_cycle;Max_cycle;Signal;HPM_P1;HPM_P2
2022/04/27 00:02:53;;;;;;;12.52;7.43;;;23.50;44.40;;;;;;6234430;27;83394;-63
2022/04/27 00:05:54;;;;;;;12.50;7.80;;;23.50;44.50;;;;;;6234506;27;80332;-62
2022/04/27 00:08:54;;;;;;;14.45;8.40;;;23.50;44.50;;;;;;6234485;27;80448;-62
2022/04/27 00:11:59;;;;;;;21.27;8.93;;;23.50;44.40;;;;;;6234618;28;80467;-63
2022/04/27 00:14:59;;;;;;;12.25;7.80;;;23.40;44.30;;;;;;6234002;27;80416;-63
2022/04/27 00:18:00;;;;;;;12.90;8.02;;;23.50;44.40;;;;;;6234151;27;80346;-63
2022/04/27 00:21:00;;;;;;;12.65;8.25;;;23.40;44.40;;;;;;6234280;27;81089;-62
2022/04/27 00:24:01;;;;;;;13.93;8.35;;;23.50;44.40;;;;;;6246524;27;80744;-62
2022/04/27 00:27:01;;;;;;;12.23;7.32;;;23.40;44.20;;;;;;6256201;27;80406;-63
2022/04/27 00:30:02;;;;;;;14.35;8.40;;;23.50;44.30;;;;;;6257068;27;81925;-63
2022/04/27 00:33:02;;;;;;;11.95;7.50;;;23.40;44.20;;;;;;6259413;27;80512;-62
2022/04/27 00:36:03;;;;;;;11.98;7.75;;;23.40;44.20;;;;;;6243414;28;81696;-62
2022/04/27 00:39:03;;;;;;;12.57;7.90;;;23.40;44.10;;;;;;6234759;27;80611;-63
2022/04/27 00:42:04;;;;;;;10.98;7.97;;;23.40;44.50;;;;;;6239156;28;81773;-62
2022/04/27 00:45:05;;;;;;;15.38;7.40;;;23.40;44.50;;;;;;6252967;27;80284;-62
2022/04/27 00:48:06;;;;;;;13.07;7.97;;;23.40;44.40;;;;;;6233011;27;81614;-62
2022/04/27 00:51:07;;;;;;;12.82;8.30;;;23.40;44.30;;;;;;6233819;27;81515;-63
2022/04/27 00:54:07;;;;;;;13.40;7.10;;;23.40;44.40;;;;;;6233887;27;81394;-63
2022/04/27 00:57:09;;;;;;;13.50;7.15;;;23.40;44.40;;;;;;6232356;28;81444;-64
2022/04/27 01:00:09;;;;;;;10.80;7.35;;;23.40;44.40;;;;;;6233926;28;80287;-64
2022/04/27 01:03:10;;;;;;;11.95;7.63;;;23.40;44.30;;;;;;6232485;28;81383;-64
2022/04/27 01:06:11;;;;;;;13.30;7.53;;;23.40;44.60;;;;;;6245410;28;80235;-64
2022/04/27 01:09:11;;;;;;;12.32;7.35;;;23.40;44.90;;;;;;6256491;27;81259;-64
2022/04/27 01:12:12;;;;;;;12.32;7.35;;;23.40;45.10;;;;;;6237257;28;81525;-64
2022/04/27 01:15:24;;;;;;;11.07;7.38;;;23.40;45.00;;;;;;6235407;28;83317;-65
2022/04/27 01:18:24;;;;;;;10.68;7.45;;;23.40;44.70;;;;;;6257217;27;81436;-64
2022/04/27 01:21:26;;;;;;;10.40;6.75;;;23.40;44.80;;;;;;6258525;27;80773;-64
2022/04/27 01:24:36;;;;;;;8.52;6.57;;;23.40;45.00;;;;;;6276075;27;82287;-64
2022/04/27 01:27:37;;;;;;;9.18;6.57;;;23.40;44.90;;;;;;6249639;27;83446;-64
2022/04/27 01:30:38;;;;;;;10.07;6.65;;;23.40;45.20;;;;;;6232935;27;80340;-65
2022/04/27 01:33:39;;;;;;;9.70;6.63;;;23.40;45.20;;;;;;6231999;28;83078;-65
2022/04/27 01:36:39;;;;;;;10.63;7.15;;;23.30;44.90;;;;;;6233052;27;80407;-65
2022/04/27 01:39:40;;;;;;;12.23;7.43;;;23.30;44.90;;;;;;6233261;27;80314;-65
2022/04/27 01:42:40;;;;;;;10.52;6.68;;;23.30;45.20;;;;;;6224331;28;82095;-65
2022/04/27 01:45:41;;;;;;;11.18;7.70;;;23.30;45.00;;;;;;6231351;28;83338;-64
2022/04/27 01:48:42;;;;;;;9.88;7.00;;;23.30;45.20;;;;;;6232900;27;80516;-64
2022/04/27 01:55:02;;;;;;;11.32;7.63;;;23.30;45.20;;;;;;6245552;28;83280;-65
2022/04/27 01:58:02;;;;;;;10.45;6.90;;;23.30;45.00;;;;;;6249852;28;83484;-64
2022/04/27 02:01:04;;;;;;;13.75;6.93;;;23.30;45.10;;;;;;6254213;27;83194;-65
2022/04/27 02:04:05;;;;;;;10.00;6.35;;;23.30;45.50;;;;;;6231163;28;83259;-63
2022/04/27 02:07:05;;;;;;;11.30;6.60;;;23.30;45.40;;;;;;6231052;28;83142;-63
2022/04/27 02:10:06;;;;;;;9.70;6.25;;;23.30;45.30;;;;;;6232726;28;82353;-64
2022/04/27 02:13:08;;;;;;;11.15;7.13;;;23.20;45.20;;;;;;6216056;28;84319;-64
2022/04/27 02:16:09;;;;;;;14.88;8.07;;;23.20;45.30;;;;;;6231058;28;83167;-64
2022/04/27 02:19:13;;;;;;;9.35;6.30;;;23.20;45.30;;;;;;6255887;27;83528;-65
2022/04/27 02:22:16;;;;;;;12.23;6.57;;;23.20;45.10;;;;;;6252947;27;83470;-64
2022/04/27 02:25:17;;;;;;;9.50;6.68;;;23.20;45.10;;;;;;6231310;28;83260;-65
2022/04/27 02:28:17;;;;;;;10.93;7.30;;;23.20;45.20;;;;;;6230243;28;83453;-65
2022/04/27 02:31:18;;;;;;;10.05;6.40;;;23.30;45.20;;;;;;6230390;28;84576;-64
2022/04/27 02:34:19;;;;;;;9.95;7.07;;;23.30;45.40;;;;;;6229884;27;88072;-65
2022/04/27 02:37:20;;;;;;;12.45;6.85;;;23.30;45.20;;;;;;6230599;28;81499;-65
2022/04/27 02:40:24;;;;;;;8.05;6.07;;;23.30;45.20;;;;;;6230304;27;82202;-65
2022/04/27 02:43:27;;;;;;;9.05;6.53;;;23.30;45.00;;;;;;6229810;27;83564;-65
2022/04/27 02:46:29;;;;;;;11.35;7.18;;;23.30;45.00;;;;;;6230271;27;83247;-65
2022/04/27 02:53:04;;;;;;;10.18;6.88;;;23.30;45.10;;;;;;6218184;27;81584;-65
2022/04/27 02:56:14;;;;;;;10.40;6.60;;;23.30;45.00;;;;;;6230089;27;82232;-65
2022/04/27 02:59:15;;;;;;;9.50;6.50;;;23.30;44.90;;;;;;6249998;27;80549;-65
2022/04/27 03:02:19;;;;;;;12.70;6.60;;;23.30;45.20;;;;;;6254631;27;81720;-65
2022/04/27 03:05:19;;;;;;;8.75;5.78;;;23.30;45.00;;;;;;6227883;28;81595;-64
2022/04/27 03:08:20;;;;;;;11.13;7.70;;;23.30;45.20;;;;;;6240124;27;80583;-64
2022/04/27 03:11:25;;;;;;;12.98;7.57;;;23.30;44.80;;;;;;6254680;27;82804;-64
2022/04/27 03:14:57;;;;;;;13.93;7.10;;;23.30;44.70;;;;;;6252449;27;81068;-64
2022/04/27 03:18:17;;;;;;;11.68;6.97;;;23.30;44.60;;;;;;6258765;28;82876;-64
2022/04/27 03:21:18;;;;;;;9.93;7.10;;;23.30;44.80;;;;;;6234887;27;81924;-65
2022/04/27 03:24:18;;;;;;;11.88;7.28;;;23.30;44.80;;;;;;6250214;27;80408;-65
2022/04/27 03:27:19;;;;;;;10.85;6.72;;;23.30;45.10;;;;;;6239535;28;83570;-66
2022/04/27 03:30:21;;;;;;;12.40;7.97;;;23.30;45.10;;;;;;6247889;27;82365;-65
2022/04/27 03:33:24;;;;;;;10.90;7.03;;;23.30;44.80;;;;;;6233782;27;83006;-64
2022/04/27 03:36:26;;;;;;;13.35;7.65;;;23.30;44.90;;;;;;6233763;28;83096;-65
2022/04/27 03:39:26;;;;;;;12.48;7.78;;;23.30;44.90;;;;;;6235134;27;80352;-65
2022/04/27 03:42:27;;;;;;;12.85;8.13;;;23.30;44.90;;;;;;6232836;28;83358;-65
2022/04/27 03:45:32;;;;;;;10.65;7.55;;;23.30;44.80;;;;;;6254878;27;80340;-64
2022/04/27 03:48:33;;;;;;;14.45;9.38;;;23.20;44.80;;;;;;6257857;28;82162;-65
2022/04/27 03:51:33;;;;;;;19.42;8.45;;;23.20;44.70;;;;;;6258642;27;83553;-66
2022/04/27 03:54:34;;;;;;;12.85;7.78;;;23.20;44.60;;;;;;6256151;27;82355;-65
2022/04/27 03:57:35;;;;;;;13.18;8.27;;;23.20;44.70;;;;;;6233535;28;80441;-65
2022/04/27 04:00:37;;;;;;;12.13;7.88;;;23.20;44.60;;;;;;6242536;27;81617;-64
2022/04/27 04:03:45;;;;;;;13.93;7.65;;;23.20;44.60;;;;;;6238899;28;82519;-65
2022/04/27 04:06:45;;;;;;;12.68;8.32;;;23.30;44.40;;;;;;6258216;27;83591;-63
2022/04/27 04:09:46;;;;;;;12.30;8.00;;;23.40;44.50;;;;;;6256674;27;83419;-63
2022/04/27 04:12:47;;;;;;;13.50;9.00;;;23.30;44.30;;;;;;6237181;27;80629;-64
2022/04/27 04:15:50;;;;;;;15.32;9.25;;;23.30;44.30;;;;;;6239537;27;80531;-62
2022/04/27 04:19:00;;;;;;;12.98;8.48;;;23.30;44.60;;;;;;6251793;27;80869;-63
2022/04/27 04:22:32;;;;;;;13.85;7.40;;;23.30;44.50;;;;;;6232360;27;87367;-61
2022/04/27 04:29:08;;;;;;;17.08;8.93;;;23.40;44.80;;;;;;6232575;27;83751;-61
2022/04/27 04:32:09;;;;;;;13.63;8.55;;;23.40;45.20;;;;;;6232840;27;83219;-61
2022/04/27 04:35:29;;;;;;;13.50;8.48;;;23.40;45.10;;;;;;6246256;27;81710;-61
2022/04/27 04:38:30;;;;;;;15.27;8.57;;;23.30;45.10;;;;;;6257616;27;83180;-62
2022/04/27 04:41:34;;;;;;;16.10;9.43;;;23.30;45.40;;;;;;6232958;28;82155;-62
2022/04/27 04:44:35;;;;;;;17.85;9.77;;;23.40;45.50;;;;;;6234289;27;80567;-63
2022/04/27 04:48:13;;;;;;;18.65;8.98;;;23.40;45.70;;;;;;6233332;27;81311;-62
2022/04/27 04:51:36;;;;;;;17.38;10.05;;;23.40;45.60;;;;;;6233556;27;81591;-61
2022/04/27 04:54:55;;;;;;;15.13;9.15;;;23.40;46.00;;;;;;6243072;27;82910;-61
2022/04/27 04:58:22;;;;;;;18.77;10.20;;;23.40;46.30;;;;;;6231455;27;87938;-62
2022/04/27 05:01:49;;;;;;;;;;;23.50;46.40;;;;;;6253433;27;83518;-61
2022/04/27 05:05:08;;;;;;;22.75;10.80;;;23.40;46.40;;;;;;6248094;27;82984;-63
2022/04/27 05:08:34;;;;;;;22.42;10.70;;;23.50;46.70;;;;;;6228267;27;83267;-62
2022/04/27 05:11:53;;;;;;;13.65;9.30;;;23.50;46.40;;;;;;6246965;27;85657;-61
2022/04/27 05:15:12;;;;;;;15.45;9.57;;;23.60;46.30;;;;;;6237808;28;84640;-70
2022/04/27 05:18:38;;;;;;;;;;;23.50;46.10;;;;;;6232038;28;80827;-61
2022/04/27 05:22:02;;;;;;;16.67;9.80;;;23.60;46.30;;;;;;6254244;27;81150;-62
2022/04/27 05:25:20;;;;;;;16.45;9.85;;;23.60;46.20;;;;;;6250790;27;80929;-62
2022/04/27 05:31:53;;;;;;;15.00;9.48;;;23.60;45.90;;;;;;6231969;27;83192;-62
2022/04/27 05:32:08;;;;;;;15.25;9.23;;;23.60;45.90;;;;;;6230774;27;80407;-62
2022/04/27 05:35:22;;;;;;;19.30;9.55;;;23.60;45.80;;;;;;6242028;27;82670;-62
2022/04/27 05:38:29;;;;;;;19.52;10.30;;;23.60;45.70;;;;;;6242053;27;83152;-61
2022/04/27 05:41:53;;;;;;;17.38;9.93;;;23.60;45.60;;;;;;6251808;27;83829;-61
2022/04/27 05:45:14;;;;;;;19.80;10.63;;;23.60;45.50;;;;;;6250442;27;82669;-64
2022/04/27 05:48:29;;;;;;;16.45;10.15;;;23.60;45.40;;;;;;6228925;28;83015;-62
2022/04/27 05:51:52;;;;;;;14.90;9.40;;;23.60;45.20;;;;;;6241520;27;83834;-62
2022/04/27 05:55:28;;;;;;;17.10;9.70;;;23.50;44.60;;;;;;6227129;28;87489;-63
2022/04/27 05:58:41;;;;;;;18.45;10.60;;;23.50;44.60;;;;;;6258241;27;80311;-62
2022/04/27 06:02:01;;;;;;;17.73;10.48;;;23.50;44.60;;;;;;6252153;27;82787;-61
2022/04/27 06:05:03;;;;;;;20.02;11.07;;;23.50;44.50;;;;;;6241579;28;84890;-62
2022/04/27 06:08:04;;;;;;;17.80;9.77;;;23.50;44.40;;;;;;6242408;27;85884;-63
2022/04/27 06:11:05;;;;;;;19.77;11.52;;;23.50;44.40;;;;;;6238417;27;85849;-62
2022/04/27 06:14:19;;;;;;;22.13;12.63;;;23.50;44.30;;;;;;6248878;27;85167;-62
2022/04/27 06:17:25;;;;;;;20.27;11.85;;;23.40;44.50;;;;;;6238363;28;84666;-68
2022/04/27 06:20:26;;;;;;;17.13;10.27;;;23.40;44.30;;;;;;6235232;27;85963;-69
2022/04/27 06:23:27;;;;;;;16.83;10.68;;;23.40;44.30;;;;;;6233020;28;85588;-68
2022/04/27 06:26:30;;;;;;;16.85;10.68;;;23.40;44.30;;;;;;6227653;28;84064;-68
2022/04/27 06:29:31;;;;;;;18.67;10.40;;;23.50;44.30;;;;;;6234366;28;85266;-69
2022/04/27 06:32:32;;;;;;;20.73;10.77;;;23.50;44.20;;;;;;6241372;27;85935;-63
2022/04/27 06:35:37;;;;;;;17.73;11.15;;;23.40;44.30;;;;;;6226895;28;85488;-62
2022/04/27 06:38:45;;;;;;;16.85;10.07;;;23.40;44.40;;;;;;6232831;28;85682;-63
2022/04/27 06:41:52;;;;;;;15.13;9.57;;;23.40;44.30;;;;;;6231296;28;84240;-62
2022/04/27 06:45:19;;;;;;;17.80;10.73;;;23.40;44.60;;;;;;6231165;28;83764;-62
2022/04/27 06:48:52;;;;;;;16.98;10.77;;;23.50;44.60;;;;;;6223901;28;83191;-62
2022/04/27 06:52:11;;;;;;;17.75;9.98;;;23.50;44.60;;;;;;6239938;27;82974;-61
2022/04/27 06:55:29;;;;;;;15.55;10.02;;;23.50;44.60;;;;;;6247404;27;87214;-62
2022/04/27 06:58:59;;;;;;;16.38;9.38;;;23.40;44.50;;;;;;6226761;27;82733;-62
2022/04/27 07:02:08;;;;;;;14.60;9.30;;;23.50;44.60;;;;;;6236161;27;85703;-62
2022/04/27 07:05:12;;;;;;;17.88;9.32;;;23.50;44.50;;;;;;6242574;27;81679;-62
2022/04/27 07:08:12;;;;;;;14.35;9.57;;;23.50;44.60;;;;;;6258681;27;83540;-62
2022/04/27 07:11:13;;;;;;;16.80;9.65;;;23.50;44.60;;;;;;6260971;27;80382;-63
2022/04/27 07:14:16;;;;;;;13.35;8.77;;;23.50;44.50;;;;;;6243566;28;87831;-62
2022/04/27 07:17:16;;;;;;;16.00;8.95;;;23.50;44.60;;;;;;6236064;27;80507;-61
2022/04/27 07:20:17;;;;;;;15.90;8.88;;;23.50;44.60;;;;;;6235481;27;80650;-61
2022/04/27 07:23:17;;;;;;;14.45;9.52;;;23.50;44.60;;;;;;6235830;27;80361;-61
2022/04/27 07:26:18;;;;;;;16.67;9.90;;;23.50;44.50;;;;;;6235319;27;80490;-62
2022/04/27 07:29:18;;;;;;;23.33;9.60;;;23.50;44.80;;;;;;6236934;27;80880;-62
2022/04/27 07:32:19;;;;;;;16.17;8.75;;;23.50;44.60;;;;;;6258365;27;80574;-68
2022/04/27 07:35:19;;;;;;;15.65;9.60;;;23.50;44.70;;;;;;6259486;27;80831;-68
2022/04/27 07:38:20;;;;;;;14.75;9.07;;;23.60;44.70;;;;;;6274497;27;81704;-67
2022/04/27 07:41:20;;;;;;;14.88;8.23;;;23.50;44.50;;;;;;6258104;27;83524;-62
2022/04/27 07:44:21;;;;;;;20.63;9.63;;;23.50;44.50;;;;;;6257987;28;83308;-62
2022/04/27 07:47:22;;;;;;;14.27;9.02;;;23.60;44.80;;;;;;6259943;27;80446;-61
2022/04/27 07:50:22;;;;;;;14.88;9.13;;;23.50;44.90;;;;;;6245002;27;81787;-61
2022/04/27 07:53:23;;;;;;;15.48;9.48;;;23.60;44.90;;;;;;6234522;27;80245;-61
2022/04/27 07:56:23;;;;;;;16.08;8.98;;;23.60;44.90;;;;;;6234325;28;81539;-62
2022/04/27 07:59:24;;;;;;;18.00;10.15;;;23.60;44.80;;;;;;6245333;27;80308;-61
2022/04/27 08:02:24;;;;;;;15.77;9.13;;;23.60;44.90;;;;;;6256672;27;83032;-61
2022/04/27 08:05:25;;;;;;;12.93;8.05;;;23.60;44.80;;;;;;6242545;27;83186;-62
2022/04/27 08:08:25;;;;;;;14.57;8.32;;;23.60;44.80;;;;;;6244688;27;81534;-61
2022/04/27 08:11:26;;;;;;;17.83;9.52;;;23.60;45.40;;;;;;6242518;27;80354;-61
2022/04/27 08:14:26;;;;;;;29.33;15.65;;;23.60;45.60;;;;;;6244795;27;80389;-61
2022/04/27 08:17:27;;;;;;;64.43;31.33;;;23.60;45.70;;;;;;6234900;27;83609;-61
2022/04/27 08:23:47;;;;;;;68.78;32.72;;;23.60;45.50;;;;;;6255577;27;83753;-61
2022/04/27 08:26:47;;;;;;;81.15;39.72;;;23.70;45.60;;;;;;6253116;27;83403;-62
2022/04/27 08:29:48;;;;;;;91.78;42.13;;;23.60;45.80;;;;;;6239248;27;83694;-62
2022/04/27 08:32:48;;;;;;;89.63;43.90;;;23.60;46.00;;;;;;6247479;27;83119;-62
2022/04/27 08:35:49;;;;;;;103.38;46.75;;;23.70;46.10;;;;;;6256419;27;83028;-62
2022/04/27 08:38:51;;;;;;;92.78;45.25;;;23.60;46.00;;;;;;6234059;27;82965;-62
2022/04/27 08:41:51;;;;;;;92.05;44.53;;;23.70;45.90;;;;;;6230291;27;82948;-61
2022/04/27 08:44:52;;;;;;;93.05;44.85;;;23.60;46.00;;;;;;6235213;27;83248;-62
2022/04/27 08:47:52;;;;;;;97.43;45.10;;;23.60;45.90;;;;;;6230662;27;83096;-61
2022/04/27 08:50:53;;;;;;;88.40;45.00;;;23.60;45.90;;;;;;6232119;27;83899;-68
2022/04/27 08:53:53;;;;;;;80.15;41.33;;;23.60;45.80;;;;;;6255249;27;83173;-61
2022/04/27 08:56:54;;;;;;;85.03;41.55;;;23.70;45.70;;;;;;6244623;27;84000;-61
2022/04/27 08:59:56;;;;;;;94.05;44.63;;;23.70;45.80;;;;;;6238229;27;85070;-62
2022/04/27 09:02:56;;;;;;;85.00;41.42;;;23.70;46.00;;;;;;6252130;27;83975;-62
2022/04/27 09:05:58;;;;;;;92.53;41.28;;;23.70;46.70;;;;;;6245782;27;83238;-61
2022/04/27 09:08:59;;;;;;;80.50;41.50;;;23.70;46.00;;;;;;6241640;27;85488;-61
2022/04/27 09:12:02;;;;;;;86.80;39.55;;;23.70;46.00;;;;;;6242262;27;84858;-61
2022/04/27 09:15:04;;;;;;;81.60;39.67;;;23.70;45.90;;;;;;6238584;27;83205;-62
2022/04/27 09:21:24;;;;;;;83.82;38.50;;;23.70;45.80;;;;;;6230471;27;83603;-61
2022/04/27 09:24:25;;;;;;;64.68;31.73;;;23.70;45.90;;;;;;6241201;27;83228;-61
2022/04/27 09:27:25;;;;;;;62.42;32.55;;;23.70;45.70;;;;;;6254945;27;83123;-62
2022/04/27 09:30:26;;;;;;;64.57;30.25;;;23.60;45.70;;;;;;6245795;27;82995;-68
2022/04/27 09:33:26;;;;;;;52.03;26.40;;;23.50;44.50;;;;;;6255798;27;83185;-61
2022/04/27 09:36:27;;;;;;;52.78;27.98;;;23.40;44.80;;;;;;6249465;27;83935;-62
2022/04/27 09:39:28;;;;;;;56.72;28.35;;;23.40;44.90;;;;;;6255090;27;83116;-61
2022/04/27 09:42:28;;;;;;;54.35;25.88;;;23.50;44.90;;;;;;6254138;27;83245;-61
2022/04/27 09:45:29;;;;;;;44.22;23.50;;;23.50;44.80;;;;;;6253997;27;83423;-62
2022/04/27 09:48:29;;;;;;;43.85;22.75;;;23.60;44.70;;;;;;6249515;27;82879;-61
2022/04/27 09:51:30;;;;;;;50.85;25.13;;;23.60;44.70;;;;;;6250434;27;84638;-60
2022/04/27 09:54:30;;;;;;;48.17;23.83;;;23.60;44.70;;;;;;6252006;27;83047;-61
2022/04/27 09:57:31;;;;;;;45.45;22.95;;;23.60;44.70;;;;;;6229987;27;83256;-62
2022/04/27 10:00:31;;;;;;;49.20;22.23;;;23.60;44.70;;;;;;6243623;27;82929;-61
2022/04/27 10:03:32;;;;;;;45.05;22.75;;;23.60;44.60;;;;;;6246372;27;83191;-62
2022/04/27 10:06:32;;;;;;;43.75;22.45;;;23.60;44.60;;;;;;6240792;27;83130;-60
2022/04/27 10:09:33;;;;;;;43.45;21.48;;;23.60;44.70;;;;;;6234206;28;83588;-60
2022/04/27 10:12:33;;;;;;;36.53;19.48;;;23.60;44.80;;;;;;6231631;27;83525;-61
2022/04/27 10:15:34;;;;;;;38.92;20.63;;;23.60;44.80;;;;;;6229315;27;83158;-61
2022/04/27 10:18:35;;;;;;;37.50;19.17;;;23.60;44.80;;;;;;6250281;27;83274;-60
2022/04/27 10:21:39;;;;;;;42.08;19.77;;;23.60;44.90;;;;;;6240521;27;83453;-61
2022/04/27 10:24:41;;;;;;;38.53;19.83;;;23.70;45.00;;;;;;6235654;27;83060;-61
2022/04/27 10:27:42;;;;;;;32.83;17.58;;;23.70;45.20;;;;;;6228907;28;83068;-61
2022/04/27 10:30:43;;;;;;;33.85;17.83;;;23.70;45.40;;;;;;6271757;27;82909;-62
2022/04/27 10:33:43;;;;;;;37.55;19.35;;;23.70;45.40;;;;;;6253715;27;83368;-61
2022/04/27 10:36:44;;;;;;;34.15;18.23;;;23.80;46.10;;;;;;6236555;27;83194;-61
2022/04/27 10:39:45;;;;;;;32.28;18.38;;;23.70;45.90;;;;;;6257477;27;83088;-61
2022/04/27 10:42:46;;;;;;;31.10;18.52;;;23.70;45.90;;;;;;6241131;28;82893;-61
2022/04/27 10:45:49;;;;;;;33.03;17.13;;;23.80;45.70;;;;;;6250843;27;83246;-61
2022/04/27 10:48:50;;;;;;;36.78;18.80;;;23.80;45.80;;;;;;6236893;27;84060;-62
2022/04/27 10:51:51;;;;;;;30.95;16.60;;;23.80;45.80;;;;;;6253963;27;83877;-61
2022/04/27 10:54:51;;;;;;;28.23;16.25;;;23.80;45.50;;;;;;6241465;27;84136;-61
2022/04/27 10:57:52;;;;;;;29.48;16.25;;;23.80;45.60;;;;;;6239612;28;83266;-62
2022/04/27 11:00:52;;;;;;;28.27;15.80;;;23.80;45.50;;;;;;6243435;27;82985;-61
2022/04/27 11:03:53;;;;;;;28.58;15.38;;;23.80;45.40;;;;;;6243361;27;83407;-61
2022/04/27 11:06:54;;;;;;;21.85;14.02;;;23.80;45.20;;;;;;6244764;27;83407;-61
2022/04/27 11:09:54;;;;;;;21.65;13.68;;;23.80;45.20;;;;;;6244543;28;84328;-61
2022/04/27 11:12:55;;;;;;;24.88;13.27;;;23.80;45.20;;;;;;6239032;27;84344;-61
2022/04/27 11:15:55;;;;;;;23.60;14.25;;;23.80;45.20;;;;;;6233488;27;83894;-61
2022/04/27 11:18:56;;;;;;;22.67;14.32;;;23.80;45.10;;;;;;6247746;27;83144;-61
2022/04/27 11:21:56;;;;;;;24.13;13.93;;;23.80;45.20;;;;;;6240568;27;83027;-60
2022/04/27 11:24:59;;;;;;;25.25;14.00;;;23.80;45.10;;;;;;6248295;27;83379;-61
2022/04/27 11:28:00;;;;;;;17.98;11.80;;;23.80;45.10;;;;;;6243308;27;83760;-61
2022/04/27 11:31:01;;;;;;;20.60;11.73;;;23.80;45.20;;;;;;6246178;27;82967;-60
2022/04/27 11:34:01;;;;;;;22.95;12.73;;;23.80;45.20;;;;;;6254778;27;83723;-61
2022/04/27 11:37:02;;;;;;;23.58;12.23;;;23.80;45.10;;;;;;6233420;27;83240;-62
2022/04/27 11:40:02;;;;;;;18.40;11.35;;;23.80;45.50;;;;;;6233452;27;83234;-61
2022/04/27 11:43:04;;;;;;;22.40;12.52;;;23.80;45.60;;;;;;6231930;27;82897;-61
2022/04/27 11:46:04;;;;;;;21.52;11.50;;;23.80;45.40;;;;;;6244920;27;83699;-63
2022/04/27 11:49:05;;;;;;;20.98;11.52;;;23.90;45.70;;;;;;6256286;27;84038;-61
2022/04/27 11:52:05;;;;;;;22.05;11.75;;;23.80;45.40;;;;;;6254754;27;85077;-61
2022/04/27 11:55:06;;;;;;;21.83;10.18;;;23.90;45.30;;;;;;6260803;27;85780;-61
2022/04/27 11:58:07;;;;;;;18.55;10.35;;;23.80;45.40;;;;;;6254429;27;82958;-61
2022/04/27 12:01:08;;;;;;;17.83;11.13;;;23.80;45.30;;;;;;6232918;27;82979;-61
2022/04/27 12:04:09;;;;;;;16.88;10.43;;;23.80;45.50;;;;;;6234719;27;83385;-61
2022/04/27 12:07:09;;;;;;;21.08;12.38;;;23.80;45.30;;;;;;6240957;28;85957;-60
2022/04/27 12:10:10;;;;;;;20.70;11.35;;;23.80;45.40;;;;;;6231299;27;82999;-60
2022/04/27 12:13:10;;;;;;;20.80;10.95;;;23.80;45.40;;;;;;6231344;27;82929;-61
2022/04/27 12:16:11;;;;;;;17.17;9.88;;;23.80;45.40;;;;;;6230098;27;82843;-61
2022/04/27 12:19:13;;;;;;;16.63;10.07;;;23.80;45.20;;;;;;6234020;27;83288;-61
2022/04/27 12:22:13;;;;;;;17.90;9.98;;;23.80;45.20;;;;;;6232950;27;82932;-60
2022/04/27 12:25:14;;;;;;;17.92;10.77;;;23.70;45.60;;;;;;6238996;27;84240;-61
2022/04/27 12:28:14;;;;;;;18.15;10.52;;;23.70;45.30;;;;;;6231994;27;83662;-61
2022/04/27 12:31:16;;;;;;;21.08;11.77;;;23.70;45.60;;;;;;6229483;28;83639;-62
2022/04/27 12:37:36;;;;;;;28.67;14.50;;;23.70;45.90;;;;;;6230595;28;86312;-61
2022/04/27 12:40:36;;;;;;;38.22;19.20;;;23.70;45.80;;;;;;6230737;27;83297;-60
2022/04/27 12:43:37;;;;;;;42.33;20.90;;;23.70;45.80;;;;;;6241420;27;82984;-62
2022/04/27 12:46:38;;;;;;;65.10;32.28;;;23.70;46.00;;;;;;6238537;27;83275;-61
2022/04/27 12:49:38;;;;;;;71.85;35.65;;;23.70;46.10;;;;;;6249004;27;86869;-61
2022/04/27 12:52:39;;;;;;;89.90;44.80;;;23.70;46.20;;;;;;6254658;27;83120;-61
2022/04/27 12:55:40;;;;;;;65.45;33.72;;;23.70;46.40;;;;;;6240588;27;84045;-61
2022/04/27 12:58:41;;;;;;;73.60;34.83;;;23.70;46.60;;;;;;6238619;27;83588;-61
2022/04/27 13:01:41;;;;;;;71.88;36.78;;;23.70;46.30;;;;;;6230301;27;82981;-61
2022/04/27 13:04:42;;;;;;;92.13;42.42;;;23.70;46.30;;;;;;6230137;27;83482;-61
2022/04/27 13:07:42;;;;;;;88.90;44.10;;;23.70;46.10;;;;;;6229707;27;84896;-60
2022/04/27 13:14:02;;;;;;;90.63;43.03;;;23.70;46.50;;;;;;6241466;27;83156;-62
2022/04/27 13:17:02;;;;;;;90.13;42.78;;;23.70;46.30;;;;;;6253399;27;83543;-61
2022/04/27 13:20:03;;;;;;;82.43;39.85;;;23.70;45.90;;;;;;6237452;27;84317;-62
2022/04/27 13:23:03;;;;;;;81.75;40.70;;;23.70;45.70;;;;;;6229643;28;84412;-61
2022/04/27 13:26:04;;;;;;;82.10;41.78;;;23.80;45.80;;;;;;6229871;27;83011;-61
2022/04/27 13:29:04;;;;;;;85.13;40.88;;;23.80;45.80;;;;;;6236317;27;83016;-61
2022/04/27 13:32:05;;;;;;;74.95;39.30;;;23.80;45.60;;;;;;6242165;27;84618;-61
2022/04/27 13:35:05;;;;;;;76.07;39.08;;;23.80;45.50;;;;;;6240561;27;83094;-61
2022/04/27 13:38:07;;;;;;;78.53;37.88;;;23.80;45.50;;;;;;6229911;27;83344;-61
2022/04/27 13:41:07;;;;;;;77.03;37.75;;;23.80;45.40;;;;;;6229351;27;83114;-61
2022/04/27 13:44:07;;;;;;;68.25;37.72;;;23.80;45.30;;;;;;6245118;27;82954;-68
2022/04/27 13:47:08;;;;;;;72.35;34.53;;;23.80;45.30;;;;;;6253322;27;83227;-60
2022/04/27 13:50:09;;;;;;;65.78;34.53;;;23.80;45.20;;;;;;6254089;27;84111;-60
2022/04/27 13:53:10;;;;;;;69.78;35.17;;;23.80;45.40;;;;;;6252796;27;83007;-61
2022/04/27 13:56:10;;;;;;;72.32;36.20;;;23.70;45.40;;;;;;6235718;28;83025;-61
2022/04/27 13:59:11;;;;;;;76.65;35.90;;;23.80;45.40;;;;;;6236165;28;83099;-61
2022/04/27 14:02:11;;;;;;;63.00;33.67;;;23.70;45.50;;;;;;6232602;28;83552;-61
2022/04/27 14:05:12;;;;;;;62.72;31.80;;;23.80;45.60;;;;;;6229122;28;83118;-61
2022/04/27 14:08:14;;;;;;;69.10;32.75;;;23.80;45.60;;;;;;6231200;27;83105;-61
2022/04/27 14:14:33;;;;;;;60.05;30.35;;;23.80;45.50;;;;;;6234593;27;83533;-61
2022/04/27 14:20:53;;;;;;;49.83;28.38;;;23.80;45.30;;;;;;6241393;27;83171;-61
2022/04/27 14:23:54;;;;;;;47.47;26.35;;;23.80;45.40;;;;;;6244349;27;83855;-62
2022/04/27 14:26:54;;;;;;;53.50;28.48;;;23.80;45.40;;;;;;6230501;27;83107;-62
2022/04/27 14:29:55;;;;;;;52.88;26.83;;;23.80;45.60;;;;;;6228459;27;83053;-62
2022/04/27 14:32:55;;;;;;;52.40;26.98;;;23.80;45.40;;;;;;6228003;27;84217;-62
2022/04/27 14:35:56;;;;;;;51.42;25.92;;;23.80;45.50;;;;;;6228305;28;83401;-62
2022/04/27 14:38:58;;;;;;;47.55;25.77;;;23.90;45.60;;;;;;6250888;27;83187;-62
2022/04/27 14:41:58;;;;;;;56.47;28.92;;;23.80;45.50;;;;;;6253005;27;82985;-61
2022/04/27 14:44:59;;;;;;;64.13;30.83;;;23.80;45.60;;;;;;6229342;27;83031;-61
2022/04/27 14:47:59;;;;;;;96.63;41.40;;;23.80;45.60;;;;;;6253712;27;82959;-63
2022/04/27 14:51:00;;;;;;;71.25;35.65;;;23.80;45.90;;;;;;6237484;27;83598;-62
2022/04/27 14:54:00;;;;;;;115.70;54.78;;;23.80;45.70;;;;;;6228899;27;82848;-62
2022/04/27 14:57:01;;;;;;;103.93;53.00;;;23.80;45.80;;;;;;6227026;28;82983;-61
2022/04/27 15:00:01;;;;;;;97.72;47.22;;;23.80;46.50;;;;;;6230698;28;84045;-61
2022/04/27 15:03:02;;;;;;;103.95;49.17;;;23.80;45.80;;;;;;6235759;27;82690;-61
2022/04/27 15:06:02;;;;;;;113.60;55.55;;;23.80;45.80;;;;;;6228350;28;83207;-61
2022/04/27 15:09:03;;;;;;;97.05;47.58;;;23.80;45.90;;;;;;6231170;27;83478;-62
2022/04/27 15:12:03;;;;;;;104.75;51.83;;;23.80;45.70;;;;;;6233669;27;84192;-62
2022/04/27 15:15:04;;;;;;;97.20;50.20;;;23.80;45.90;;;;;;6233013;27;82931;-62
2022/04/27 15:18:05;;;;;;;100.25;48.45;;;23.80;46.00;;;;;;6235440;27;83457;-62
2022/04/27 15:24:26;;;;;;;105.03;47.38;;;23.80;46.10;;;;;;6233364;27;83231;-62
2022/04/27 15:27:27;;;;;;;91.78;46.20;;;23.70;46.10;;;;;;6234970;27;83232;-62
2022/04/27 15:30:27;;;;;;;92.70;45.50;;;23.80;46.10;;;;;;6240666;27;83277;-64
2022/04/27 15:33:29;;;;;;;93.07;43.17;;;23.70;46.00;;;;;;6249043;27;83346;-61
2022/04/27 15:36:30;;;;;;;96.72;44.35;;;23.70;46.40;;;;;;6233817;27;83174;-62
2022/04/27 15:39:30;;;;;;;86.38;41.60;;;23.80;46.50;;;;;;6235425;27;83274;-61
2022/04/27 15:42:31;;;;;;;83.55;39.05;;;23.80;46.20;;;;;;6231134;27;83431;-60
2022/04/27 15:45:31;;;;;;;91.20;39.78;;;23.80;46.20;;;;;;6230960;27;84135;-63
2022/04/27 15:48:32;;;;;;;70.63;36.28;;;23.90;46.70;;;;;;6231262;27;82957;-60
2022/04/27 15:51:33;;;;;;;70.90;34.83;;;23.80;46.80;;;;;;6235583;27;83053;-60
2022/04/27 15:54:33;;;;;;;66.82;34.80;;;23.80;46.90;;;;;;6230819;27;83162;-60
2022/04/27 15:57:34;;;;;;;69.32;33.83;;;23.90;46.90;;;;;;6247558;27;85695;-60
2022/04/27 16:00:34;;;;;;;62.00;30.90;;;23.90;46.60;;;;;;6254161;27;83023;-60
2022/04/27 16:03:36;;;;;;;63.00;32.45;;;23.90;46.50;;;;;;6231641;27;82874;-62
2022/04/27 16:06:36;;;;;;;60.00;30.38;;;23.90;46.70;;;;;;6242756;27;83661;-60
2022/04/27 16:09:37;;;;;;;62.35;31.98;;;23.90;46.60;;;;;;6231675;27;83837;-60
2022/04/27 16:12:37;;;;;;;54.55;29.50;;;23.90;46.70;;;;;;6235588;27;83193;-60